sensor_id;sensor_type;location;lat;lon;timestamp;P1;durP1;ratioP1;P2;durP2;ratioP2
64816;SDS011;69411;45.656;11.740;2023-11-19T00:00:07;53.80;;;22.40;;
64816;SDS011;69411;45.656;11.740;2023-11-19T00:02:36;40.75;;;21.00;;
64816;SDS011;69411;45.656;11.740;2023-11-19T00:05:03;39.55;;;21.67;;
64816;SDS011;69411;45.656;11.740;2023-11-19T00:07:50;37.78;;;20.95;;
64816;SDS011;69411;45.656;11.740;2023-11-19T00:10:18;36.35;;;21.08;;
64816;SDS011;69411;45.656;11.740;2023-11-19T00:12:48;36.65;;;19.42;;
64816;SDS011;69411;45.656;11.740;2023-11-19T00:15:17;36.05;;;19.88;;
64816;SDS011;69411;45.656;11.740;2023-11-19T00:17:44;31.98;;;18.40;;
64816;SDS011;69411;45.656;11.740;2023-11-19T00:20:18;42.92;;;20.23;;
64816;SDS011;69411;45.656;11.740;2023-11-19T00:22:47;30.67;;;16.45;;
64816;SDS011;69411;45.656;11.740;2023-11-19T00:25:19;29.13;;;15.85;;
64816;SDS011;69411;45.656;11.740;2023-11-19T00:27:46;31.77;;;16.23;;
64816;SDS011;69411;45.656;11.740;2023-11-19T00:30:13;30.67;;;17.05;;
64816;SDS011;69411;45.656;11.740;2023-11-19T00:32:42;34.42;;;18.48;;
64816;SDS011;69411;45.656;11.740;2023-11-19T00:35:11;29.65;;;17.23;;
64816;SDS011;69411;45.656;11.740;2023-11-19T00:37:44;34.90;;;18.08;;
64816;SDS011;69411;45.656;11.740;2023-11-19T00:40:13;34.40;;;18.33;;
64816;SDS011;69411;45.656;11.740;2023-11-19T00:42:41;30.02;;;16.85;;
64816;SDS011;69411;45.656;11.740;2023-11-19T00:45:07;40.08;;;20.50;;
64816;SDS011;69411;45.656;11.740;2023-11-19T00:47:35;37.05;;;19.38;;
64816;SDS011;69411;45.656;11.740;2023-11-19T00:50:02;35.10;;;18.58;;
64816;SDS011;69411;45.656;11.740;2023-11-19T00:52:30;30.42;;;16.67;;
64816;SDS011;69411;45.656;11.740;2023-11-19T00:54:56;31.77;;;17.35;;
64816;SDS011;69411;45.656;11.740;2023-11-19T00:57:22;32.35;;;16.08;;
64816;SDS011;69411;45.656;11.740;2023-11-19T00:59:51;27.25;;;15.13;;
64816;SDS011;69411;45.656;11.740;2023-11-19T01:02:17;31.35;;;15.52;;
64816;SDS011;69411;45.656;11.740;2023-11-19T01:04:51;30.23;;;16.13;;
64816;SDS011;69411;45.656;11.740;2023-11-19T01:09:43;29.15;;;16.90;;
64816;SDS011;69411;45.656;11.740;2023-11-19T01:12:09;32.10;;;16.23;;
64816;SDS011;69411;45.656;11.740;2023-11-19T01:14:35;28.35;;;15.63;;
64816;SDS011;69411;45.656;11.740;2023-11-19T01:17:02;30.50;;;15.48;;
64816;SDS011;69411;45.656;11.740;2023-11-19T01:19:32;30.38;;;16.33;;
64816;SDS011;69411;45.656;11.740;2023-11-19T01:21:59;28.48;;;15.98;;
64816;SDS011;69411;45.656;11.740;2023-11-19T01:24:25;30.20;;;16.30;;
64816;SDS011;69411;45.656;11.740;2023-11-19T01:26:53;33.20;;;17.27;;
64816;SDS011;69411;45.656;11.740;2023-11-19T01:29:19;33.20;;;17.67;;
64816;SDS011;69411;45.656;11.740;2023-11-19T01:31:46;37.28;;;19.30;;
64816;SDS011;69411;45.656;11.740;2023-11-19T01:34:12;32.83;;;17.27;;
64816;SDS011;69411;45.656;11.740;2023-11-19T01:36:43;39.78;;;19.60;;
64816;SDS011;69411;45.656;11.740;2023-11-19T01:39:14;27.52;;;15.90;;
64816;SDS011;69411;45.656;11.740;2023-11-19T01:41:43;30.10;;;15.80;;
64816;SDS011;69411;45.656;11.740;2023-11-19T01:44:10;34.40;;;16.35;;
64816;SDS011;69411;45.656;11.740;2023-11-19T01:46:41;35.03;;;18.55;;
64816;SDS011;69411;45.656;11.740;2023-11-19T01:49:13;39.35;;;19.80;;
64816;SDS011;69411;45.656;11.740;2023-11-19T01:51:41;39.63;;;19.80;;
64816;SDS011;69411;45.656;11.740;2023-11-19T01:54:07;39.22;;;18.50;;
64816;SDS011;69411;45.656;11.740;2023-11-19T01:56:34;36.08;;;17.75;;
64816;SDS011;69411;45.656;11.740;2023-11-19T01:59:02;31.25;;;15.32;;
64816;SDS011;69411;45.656;11.740;2023-11-19T02:01:31;26.30;;;15.43;;
64816;SDS011;69411;45.656;11.740;2023-11-19T02:03:59;32.55;;;15.20;;
64816;SDS011;69411;45.656;11.740;2023-11-19T02:06:29;31.48;;;15.82;;
64816;SDS011;69411;45.656;11.740;2023-11-19T02:08:58;32.33;;;15.75;;
64816;SDS011;69411;45.656;11.740;2023-11-19T02:11:27;34.75;;;16.80;;
64816;SDS011;69411;45.656;11.740;2023-11-19T02:13:55;30.70;;;15.45;;
64816;SDS011;69411;45.656;11.740;2023-11-19T02:16:24;31.35;;;16.00;;
64816;SDS011;69411;45.656;11.740;2023-11-19T02:18:50;37.75;;;17.08;;
64816;SDS011;69411;45.656;11.740;2023-11-19T02:21:18;28.58;;;14.43;;
64816;SDS011;69411;45.656;11.740;2023-11-19T02:23:45;29.67;;;14.30;;
64816;SDS011;69411;45.656;11.740;2023-11-19T02:28:58;26.27;;;14.07;;
64816;SDS011;69411;45.656;11.740;2023-11-19T02:31:24;24.83;;;13.73;;
64816;SDS011;69411;45.656;11.740;2023-11-19T02:33:52;23.23;;;12.77;;
64816;SDS011;69411;45.656;11.740;2023-11-19T02:36:18;25.42;;;13.60;;
64816;SDS011;69411;45.656;11.740;2023-11-19T02:38:44;26.73;;;13.32;;
64816;SDS011;69411;45.656;11.740;2023-11-19T02:41:10;23.08;;;12.95;;
64816;SDS011;69411;45.656;11.740;2023-11-19T02:43:37;32.97;;;16.50;;
64816;SDS011;69411;45.656;11.740;2023-11-19T02:46:04;35.58;;;16.80;;
64816;SDS011;69411;45.656;11.740;2023-11-19T02:48:34;26.95;;;15.05;;
64816;SDS011;69411;45.656;11.740;2023-11-19T02:51:03;25.58;;;13.10;;
64816;SDS011;69411;45.656;11.740;2023-11-19T02:53:30;27.77;;;12.77;;
64816;SDS011;69411;45.656;11.740;2023-11-19T02:55:57;27.38;;;13.68;;
64816;SDS011;69411;45.656;11.740;2023-11-19T02:58:31;27.30;;;12.88;;
64816;SDS011;69411;45.656;11.740;2023-11-19T03:01:00;25.38;;;13.07;;
64816;SDS011;69411;45.656;11.740;2023-11-19T03:03:46;25.38;;;13.70;;
64816;SDS011;69411;45.656;11.740;2023-11-19T03:06:14;30.23;;;14.50;;
64816;SDS011;69411;45.656;11.740;2023-11-19T03:08:49;25.67;;;13.43;;
64816;SDS011;69411;45.656;11.740;2023-11-19T03:11:15;22.10;;;12.45;;
64816;SDS011;69411;45.656;11.740;2023-11-19T03:13:44;23.77;;;13.07;;
64816;SDS011;69411;45.656;11.740;2023-11-19T03:16:11;22.85;;;12.32;;
64816;SDS011;69411;45.656;11.740;2023-11-19T03:18:40;25.75;;;12.18;;
64816;SDS011;69411;45.656;11.740;2023-11-19T03:21:06;21.00;;;11.98;;
64816;SDS011;69411;45.656;11.740;2023-11-19T03:23:35;25.92;;;12.57;;
64816;SDS011;69411;45.656;11.740;2023-11-19T03:26:02;22.75;;;12.85;;
64816;SDS011;69411;45.656;11.740;2023-11-19T03:28:29;23.23;;;12.63;;
64816;SDS011;69411;45.656;11.740;2023-11-19T03:30:56;26.45;;;13.80;;
64816;SDS011;69411;45.656;11.740;2023-11-19T03:33:22;24.63;;;12.70;;
64816;SDS011;69411;45.656;11.740;2023-11-19T03:35:48;27.38;;;13.23;;
64816;SDS011;69411;45.656;11.740;2023-11-19T03:38:14;23.73;;;13.30;;
64816;SDS011;69411;45.656;11.740;2023-11-19T03:40:40;27.02;;;14.07;;
64816;SDS011;69411;45.656;11.740;2023-11-19T03:43:06;22.67;;;12.52;;
64816;SDS011;69411;45.656;11.740;2023-11-19T03:45:34;25.40;;;12.20;;
64816;SDS011;69411;45.656;11.740;2023-11-19T03:48:03;25.55;;;13.63;;
64816;SDS011;69411;45.656;11.740;2023-11-19T03:50:30;26.98;;;12.95;;
64816;SDS011;69411;45.656;11.740;2023-11-19T03:52:56;26.77;;;13.38;;
64816;SDS011;69411;45.656;11.740;2023-11-19T03:55:22;22.00;;;12.75;;
64816;SDS011;69411;45.656;11.740;2023-11-19T03:57:48;24.75;;;13.27;;
64816;SDS011;69411;45.656;11.740;2023-11-19T04:00:14;29.27;;;14.38;;
64816;SDS011;69411;45.656;11.740;2023-11-19T04:02:40;25.48;;;13.32;;
64816;SDS011;69411;45.656;11.740;2023-11-19T04:05:07;31.38;;;14.45;;
64816;SDS011;69411;45.656;11.740;2023-11-19T04:07:33;27.70;;;13.48;;
64816;SDS011;69411;45.656;11.740;2023-11-19T04:09:59;30.83;;;12.95;;
64816;SDS011;69411;45.656;11.740;2023-11-19T04:12:25;23.73;;;12.07;;
64816;SDS011;69411;45.656;11.740;2023-11-19T04:14:51;21.35;;;11.65;;
64816;SDS011;69411;45.656;11.740;2023-11-19T04:17:17;20.83;;;11.07;;
64816;SDS011;69411;45.656;11.740;2023-11-19T04:19:43;22.20;;;11.65;;
64816;SDS011;69411;45.656;11.740;2023-11-19T04:22:10;23.13;;;12.10;;
64816;SDS011;69411;45.656;11.740;2023-11-19T04:24:36;23.13;;;13.35;;
64816;SDS011;69411;45.656;11.740;2023-11-19T04:27:02;23.50;;;12.07;;
64816;SDS011;69411;45.656;11.740;2023-11-19T04:29:29;22.30;;;12.10;;
64816;SDS011;69411;45.656;11.740;2023-11-19T04:31:56;24.10;;;12.82;;
64816;SDS011;69411;45.656;11.740;2023-11-19T04:34:22;21.30;;;11.35;;
64816;SDS011;69411;45.656;11.740;2023-11-19T04:36:48;19.88;;;10.98;;
64816;SDS011;69411;45.656;11.740;2023-11-19T04:39:14;23.40;;;11.27;;
64816;SDS011;69411;45.656;11.740;2023-11-19T04:41:50;22.02;;;11.63;;
64816;SDS011;69411;45.656;11.740;2023-11-19T04:44:19;31.40;;;13.00;;
64816;SDS011;69411;45.656;11.740;2023-11-19T04:46:45;30.75;;;13.50;;
64816;SDS011;69411;45.656;11.740;2023-11-19T04:49:12;26.15;;;13.02;;
64816;SDS011;69411;45.656;11.740;2023-11-19T04:51:41;28.00;;;14.05;;
64816;SDS011;69411;45.656;11.740;2023-11-19T04:54:08;24.27;;;13.10;;
64816;SDS011;69411;45.656;11.740;2023-11-19T04:56:35;24.55;;;13.77;;
64816;SDS011;69411;45.656;11.740;2023-11-19T04:59:05;25.35;;;13.63;;
64816;SDS011;69411;45.656;11.740;2023-11-19T05:01:31;25.05;;;12.63;;
64816;SDS011;69411;45.656;11.740;2023-11-19T05:03:58;32.33;;;14.35;;
64816;SDS011;69411;45.656;11.740;2023-11-19T05:06:26;32.97;;;15.35;;
64816;SDS011;69411;45.656;11.740;2023-11-19T05:08:53;33.67;;;14.10;;
64816;SDS011;69411;45.656;11.740;2023-11-19T05:11:19;31.23;;;14.25;;
64816;SDS011;69411;45.656;11.740;2023-11-19T05:13:45;24.13;;;12.23;;
64816;SDS011;69411;45.656;11.740;2023-11-19T05:16:11;25.25;;;12.38;;
64816;SDS011;69411;45.656;11.740;2023-11-19T05:18:40;29.80;;;13.50;;
64816;SDS011;69411;45.656;11.740;2023-11-19T05:21:06;25.15;;;12.45;;
64816;SDS011;69411;45.656;11.740;2023-11-19T05:23:33;24.23;;;12.95;;
64816;SDS011;69411;45.656;11.740;2023-11-19T05:26:01;26.83;;;13.40;;
64816;SDS011;69411;45.656;11.740;2023-11-19T05:28:28;26.25;;;11.82;;
64816;SDS011;69411;45.656;11.740;2023-11-19T05:30:54;26.23;;;11.95;;
64816;SDS011;69411;45.656;11.740;2023-11-19T05:33:21;20.70;;;11.50;;
64816;SDS011;69411;45.656;11.740;2023-11-19T05:35:47;19.98;;;11.35;;
64816;SDS011;69411;45.656;11.740;2023-11-19T05:38:20;21.73;;;10.95;;
64816;SDS011;69411;45.656;11.740;2023-11-19T05:40:46;20.63;;;11.65;;
64816;SDS011;69411;45.656;11.740;2023-11-19T05:43:13;21.25;;;11.02;;
64816;SDS011;69411;45.656;11.740;2023-11-19T05:45:42;21.52;;;11.00;;
64816;SDS011;69411;45.656;11.740;2023-11-19T05:48:11;20.60;;;11.18;;
64816;SDS011;69411;45.656;11.740;2023-11-19T05:50:39;21.10;;;10.85;;
64816;SDS011;69411;45.656;11.740;2023-11-19T05:53:05;19.83;;;10.55;;
64816;SDS011;69411;45.656;11.740;2023-11-19T05:55:35;21.20;;;10.63;;
64816;SDS011;69411;45.656;11.740;2023-11-19T05:58:14;23.58;;;11.45;;
64816;SDS011;69411;45.656;11.740;2023-11-19T06:00:43;21.92;;;11.27;;
64816;SDS011;69411;45.656;11.740;2023-11-19T06:03:12;23.17;;;10.68;;
64816;SDS011;69411;45.656;11.740;2023-11-19T06:05:39;22.23;;;11.43;;
64816;SDS011;69411;45.656;11.740;2023-11-19T06:08:05;26.65;;;12.48;;
64816;SDS011;69411;45.656;11.740;2023-11-19T06:10:32;25.08;;;12.30;;
64816;SDS011;69411;45.656;11.740;2023-11-19T06:12:58;20.48;;;11.70;;
64816;SDS011;69411;45.656;11.740;2023-11-19T06:15:28;25.00;;;11.27;;
64816;SDS011;69411;45.656;11.740;2023-11-19T06:17:54;27.17;;;12.05;;
64816;SDS011;69411;45.656;11.740;2023-11-19T06:20:21;26.98;;;12.93;;
64816;SDS011;69411;45.656;11.740;2023-11-19T06:22:47;23.00;;;11.68;;
64816;SDS011;69411;45.656;11.740;2023-11-19T06:25:13;33.92;;;17.17;;
64816;SDS011;69411;45.656;11.740;2023-11-19T06:27:40;35.65;;;16.30;;
64816;SDS011;69411;45.656;11.740;2023-11-19T06:30:07;37.38;;;17.45;;
64816;SDS011;69411;45.656;11.740;2023-11-19T06:32:35;44.42;;;18.98;;
64816;SDS011;69411;45.656;11.740;2023-11-19T06:35:01;46.13;;;19.63;;
64816;SDS011;69411;45.656;11.740;2023-11-19T06:37:27;42.72;;;20.13;;
64816;SDS011;69411;45.656;11.740;2023-11-19T06:39:56;45.75;;;22.27;;
64816;SDS011;69411;45.656;11.740;2023-11-19T06:42:23;56.97;;;27.25;;
64816;SDS011;69411;45.656;11.740;2023-11-19T06:44:49;30.08;;;16.40;;
64816;SDS011;69411;45.656;11.740;2023-11-19T06:47:14;29.20;;;14.60;;
64816;SDS011;69411;45.656;11.740;2023-11-19T06:49:44;23.13;;;11.82;;
64816;SDS011;69411;45.656;11.740;2023-11-19T06:52:10;22.38;;;11.75;;
64816;SDS011;69411;45.656;11.740;2023-11-19T06:54:38;21.75;;;11.32;;
64816;SDS011;69411;45.656;11.740;2023-11-19T06:57:05;16.73;;;9.32;;
64816;SDS011;69411;45.656;11.740;2023-11-19T06:59:31;18.77;;;9.55;;
64816;SDS011;69411;45.656;11.740;2023-11-19T07:01:57;18.35;;;9.60;;
64816;SDS011;69411;45.656;11.740;2023-11-19T07:04:27;19.35;;;10.23;;
64816;SDS011;69411;45.656;11.740;2023-11-19T07:06:53;19.20;;;10.07;;
64816;SDS011;69411;45.656;11.740;2023-11-19T07:09:19;17.90;;;10.25;;
64816;SDS011;69411;45.656;11.740;2023-11-19T07:11:46;22.20;;;10.32;;
64816;SDS011;69411;45.656;11.740;2023-11-19T07:14:12;17.77;;;9.88;;
64816;SDS011;69411;45.656;11.740;2023-11-19T07:16:38;20.48;;;10.70;;
64816;SDS011;69411;45.656;11.740;2023-11-19T07:19:04;23.98;;;11.27;;
64816;SDS011;69411;45.656;11.740;2023-11-19T07:21:34;24.13;;;12.25;;
64816;SDS011;69411;45.656;11.740;2023-11-19T07:24:04;23.63;;;11.68;;
64816;SDS011;69411;45.656;11.740;2023-11-19T07:26:39;23.58;;;12.40;;
64816;SDS011;69411;45.656;11.740;2023-11-19T07:29:11;25.40;;;12.82;;
64816;SDS011;69411;45.656;11.740;2023-11-19T07:31:37;23.83;;;12.57;;
64816;SDS011;69411;45.656;11.740;2023-11-19T07:34:03;26.35;;;12.43;;
64816;SDS011;69411;45.656;11.740;2023-11-19T07:36:31;23.17;;;11.80;;
64816;SDS011;69411;45.656;11.740;2023-11-19T07:38:58;21.02;;;11.00;;
64816;SDS011;69411;45.656;11.740;2023-11-19T07:41:24;20.88;;;11.40;;
64816;SDS011;69411;45.656;11.740;2023-11-19T07:43:52;24.33;;;12.95;;
64816;SDS011;69411;45.656;11.740;2023-11-19T07:46:18;25.60;;;15.00;;
64816;SDS011;69411;45.656;11.740;2023-11-19T07:48:47;30.20;;;15.82;;
64816;SDS011;69411;45.656;11.740;2023-11-19T07:51:13;29.20;;;17.70;;
64816;SDS011;69411;45.656;11.740;2023-11-19T07:53:41;26.92;;;15.27;;
64816;SDS011;69411;45.656;11.740;2023-11-19T07:56:08;26.00;;;13.80;;
64816;SDS011;69411;45.656;11.740;2023-11-19T07:58:41;28.42;;;16.88;;
64816;SDS011;69411;45.656;11.740;2023-11-19T08:01:08;31.13;;;16.67;;
64816;SDS011;69411;45.656;11.740;2023-11-19T08:03:39;33.72;;;17.92;;
64816;SDS011;69411;45.656;11.740;2023-11-19T08:06:08;29.23;;;14.88;;
64816;SDS011;69411;45.656;11.740;2023-11-19T08:08:37;30.02;;;15.07;;
64816;SDS011;69411;45.656;11.740;2023-11-19T08:11:09;30.02;;;17.55;;
64816;SDS011;69411;45.656;11.740;2023-11-19T08:13:35;27.90;;;15.63;;
64816;SDS011;69411;45.656;11.740;2023-11-19T08:16:02;23.70;;;13.50;;
64816;SDS011;69411;45.656;11.740;2023-11-19T08:18:29;22.90;;;11.30;;
64816;SDS011;69411;45.656;11.740;2023-11-19T08:20:55;20.05;;;11.35;;
64816;SDS011;69411;45.656;11.740;2023-11-19T08:23:23;21.25;;;11.63;;
64816;SDS011;69411;45.656;11.740;2023-11-19T08:25:50;19.45;;;10.90;;
64816;SDS011;69411;45.656;11.740;2023-11-19T08:28:17;21.42;;;11.30;;
64816;SDS011;69411;45.656;11.740;2023-11-19T08:30:48;18.85;;;10.40;;
64816;SDS011;69411;45.656;11.740;2023-11-19T08:33:15;22.15;;;12.05;;
64816;SDS011;69411;45.656;11.740;2023-11-19T08:35:45;21.60;;;11.93;;
64816;SDS011;69411;45.656;11.740;2023-11-19T08:38:12;20.77;;;11.32;;
64816;SDS011;69411;45.656;11.740;2023-11-19T08:40:38;17.42;;;10.50;;
64816;SDS011;69411;45.656;11.740;2023-11-19T08:43:05;20.65;;;11.05;;
64816;SDS011;69411;45.656;11.740;2023-11-19T08:45:32;19.05;;;10.60;;
64816;SDS011;69411;45.656;11.740;2023-11-19T08:48:00;18.48;;;10.68;;
64816;SDS011;69411;45.656;11.740;2023-11-19T08:50:27;16.77;;;10.15;;
64816;SDS011;69411;45.656;11.740;2023-11-19T08:52:57;18.35;;;10.10;;
64816;SDS011;69411;45.656;11.740;2023-11-19T08:55:23;18.80;;;10.00;;
64816;SDS011;69411;45.656;11.740;2023-11-19T08:57:51;18.75;;;9.40;;
64816;SDS011;69411;45.656;11.740;2023-11-19T09:00:17;16.15;;;9.95;;
64816;SDS011;69411;45.656;11.740;2023-11-19T09:02:44;15.82;;;9.35;;
64816;SDS011;69411;45.656;11.740;2023-11-19T09:05:10;17.48;;;10.35;;
64816;SDS011;69411;45.656;11.740;2023-11-19T09:07:36;17.85;;;9.30;;
64816;SDS011;69411;45.656;11.740;2023-11-19T09:10:02;16.13;;;9.98;;
64816;SDS011;69411;45.656;11.740;2023-11-19T09:12:30;15.48;;;9.40;;
64816;SDS011;69411;45.656;11.740;2023-11-19T09:14:56;17.25;;;9.10;;
64816;SDS011;69411;45.656;11.740;2023-11-19T09:17:22;14.82;;;8.35;;
64816;SDS011;69411;45.656;11.740;2023-11-19T09:19:49;14.07;;;8.10;;
64816;SDS011;69411;45.656;11.740;2023-11-19T09:22:15;12.35;;;7.72;;
64816;SDS011;69411;45.656;11.740;2023-11-19T09:24:41;15.98;;;7.32;;
64816;SDS011;69411;45.656;11.740;2023-11-19T09:27:09;12.57;;;7.53;;
64816;SDS011;69411;45.656;11.740;2023-11-19T09:29:35;13.68;;;8.13;;
64816;SDS011;69411;45.656;11.740;2023-11-19T09:32:01;19.48;;;8.68;;
64816;SDS011;69411;45.656;11.740;2023-11-19T09:34:27;16.02;;;7.55;;
64816;SDS011;69411;45.656;11.740;2023-11-19T09:36:53;14.63;;;7.50;;
64816;SDS011;69411;45.656;11.740;2023-11-19T09:39:19;13.75;;;7.53;;
64816;SDS011;69411;45.656;11.740;2023-11-19T09:41:46;12.70;;;6.80;;
64816;SDS011;69411;45.656;11.740;2023-11-19T09:44:14;12.85;;;7.05;;
64816;SDS011;69411;45.656;11.740;2023-11-19T09:46:43;12.80;;;6.65;;
64816;SDS011;69411;45.656;11.740;2023-11-19T09:49:10;12.05;;;6.95;;
64816;SDS011;69411;45.656;11.740;2023-11-19T09:51:38;13.77;;;7.40;;
64816;SDS011;69411;45.656;11.740;2023-11-19T09:54:04;11.90;;;6.63;;
64816;SDS011;69411;45.656;11.740;2023-11-19T09:56:30;12.88;;;7.50;;
64816;SDS011;69411;45.656;11.740;2023-11-19T09:58:58;12.50;;;7.07;;
64816;SDS011;69411;45.656;11.740;2023-11-19T10:01:24;13.75;;;7.90;;
64816;SDS011;69411;45.656;11.740;2023-11-19T10:03:50;17.05;;;8.80;;
64816;SDS011;69411;45.656;11.740;2023-11-19T10:06:22;13.90;;;7.28;;
64816;SDS011;69411;45.656;11.740;2023-11-19T10:08:54;13.23;;;7.13;;
64816;SDS011;69411;45.656;11.740;2023-11-19T10:11:21;12.75;;;7.47;;
64816;SDS011;69411;45.656;11.740;2023-11-19T10:13:47;13.65;;;7.50;;
64816;SDS011;69411;45.656;11.740;2023-11-19T10:16:14;13.88;;;7.70;;
64816;SDS011;69411;45.656;11.740;2023-11-19T10:18:47;15.35;;;7.45;;
64816;SDS011;69411;45.656;11.740;2023-11-19T10:21:17;11.65;;;6.85;;
64816;SDS011;69411;45.656;11.740;2023-11-19T10:23:50;15.02;;;8.40;;
64816;SDS011;69411;45.656;11.740;2023-11-19T10:26:25;14.52;;;7.00;;
64816;SDS011;69411;45.656;11.740;2023-11-19T10:28:55;12.65;;;6.85;;
64816;SDS011;69411;45.656;11.740;2023-11-19T10:31:23;12.15;;;6.40;;
64816;SDS011;69411;45.656;11.740;2023-11-19T10:33:51;14.13;;;7.78;;
64816;SDS011;69411;45.656;11.740;2023-11-19T10:36:20;16.20;;;8.05;;
64816;SDS011;69411;45.656;11.740;2023-11-19T10:38:55;14.35;;;8.25;;
64816;SDS011;69411;45.656;11.740;2023-11-19T10:41:28;14.65;;;8.05;;
64816;SDS011;69411;45.656;11.740;2023-11-19T10:43:57;15.27;;;8.80;;
64816;SDS011;69411;45.656;11.740;2023-11-19T10:46:35;14.52;;;7.95;;
64816;SDS011;69411;45.656;11.740;2023-11-19T10:49:03;18.80;;;9.73;;
64816;SDS011;69411;45.656;11.740;2023-11-19T10:51:30;14.82;;;7.85;;
64816;SDS011;69411;45.656;11.740;2023-11-19T10:53:57;15.13;;;8.18;;
64816;SDS011;69411;45.656;11.740;2023-11-19T10:56:33;15.52;;;8.85;;
64816;SDS011;69411;45.656;11.740;2023-11-19T10:59:00;18.05;;;9.30;;
64816;SDS011;69411;45.656;11.740;2023-11-19T11:01:43;17.10;;;8.60;;
64816;SDS011;69411;45.656;11.740;2023-11-19T11:04:22;15.95;;;9.48;;
64816;SDS011;69411;45.656;11.740;2023-11-19T11:06:50;16.70;;;9.07;;
64816;SDS011;69411;45.656;11.740;2023-11-19T11:09:19;14.90;;;8.73;;
64816;SDS011;69411;45.656;11.740;2023-11-19T11:11:46;14.70;;;7.88;;
64816;SDS011;69411;45.656;11.740;2023-11-19T11:14:13;15.10;;;8.48;;
64816;SDS011;69411;45.656;11.740;2023-11-19T11:16:42;18.33;;;9.63;;
64816;SDS011;69411;45.656;11.740;2023-11-19T11:19:10;20.60;;;9.90;;
64816;SDS011;69411;45.656;11.740;2023-11-19T11:21:38;18.70;;;9.52;;
64816;SDS011;69411;45.656;11.740;2023-11-19T11:24:15;18.85;;;9.98;;
64816;SDS011;69411;45.656;11.740;2023-11-19T11:38:47;19.65;;;9.82;;
64816;SDS011;69411;45.656;11.740;2023-11-19T11:41:15;19.05;;;10.75;;
64816;SDS011;69411;45.656;11.740;2023-11-19T11:43:46;20.95;;;10.07;;
64816;SDS011;69411;45.656;11.740;2023-11-19T11:49:03;21.48;;;11.57;;
64816;SDS011;69411;45.656;11.740;2023-11-19T11:57:00;21.33;;;11.10;;
64816;SDS011;69411;45.656;11.740;2023-11-19T11:59:40;19.42;;;10.80;;
64816;SDS011;69411;45.656;11.740;2023-11-19T12:02:15;17.85;;;9.95;;
64816;SDS011;69411;45.656;11.740;2023-11-19T12:04:47;20.50;;;10.93;;
64816;SDS011;69411;45.656;11.740;2023-11-19T12:07:18;18.63;;;10.45;;
64816;SDS011;69411;45.656;11.740;2023-11-19T12:09:53;20.45;;;11.07;;
64816;SDS011;69411;45.656;11.740;2023-11-19T12:12:33;18.48;;;10.32;;
64816;SDS011;69411;45.656;11.740;2023-11-19T12:20:02;17.10;;;10.30;;
64816;SDS011;69411;45.656;11.740;2023-11-19T12:22:33;19.25;;;10.52;;
64816;SDS011;69411;45.656;11.740;2023-11-19T12:25:06;18.30;;;10.40;;
64816;SDS011;69411;45.656;11.740;2023-11-19T12:27:44;18.40;;;10.05;;
64816;SDS011;69411;45.656;11.740;2023-11-19T12:30:25;18.00;;;10.00;;
64816;SDS011;69411;45.656;11.740;2023-11-19T12:32:55;18.52;;;10.38;;
64816;SDS011;69411;45.656;11.740;2023-11-19T12:35:21;17.52;;;9.20;;
64816;SDS011;69411;45.656;11.740;2023-11-19T12:37:49;18.50;;;9.75;;
64816;SDS011;69411;45.656;11.740;2023-11-19T12:40:22;20.15;;;11.02;;
64816;SDS011;69411;45.656;11.740;2023-11-19T12:42:51;19.60;;;10.05;;
64816;SDS011;69411;45.656;11.740;2023-11-19T12:45:18;20.33;;;11.02;;
64816;SDS011;69411;45.656;11.740;2023-11-19T12:47:46;18.33;;;9.77;;
64816;SDS011;69411;45.656;11.740;2023-11-19T12:50:14;18.83;;;10.05;;
64816;SDS011;69411;45.656;11.740;2023-11-19T12:52:58;17.17;;;9.93;;
64816;SDS011;69411;45.656;11.740;2023-11-19T12:55:25;20.52;;;11.38;;
64816;SDS011;69411;45.656;11.740;2023-11-19T12:57:56;19.40;;;10.32;;
64816;SDS011;69411;45.656;11.740;2023-11-19T13:00:24;20.15;;;11.23;;
64816;SDS011;69411;45.656;11.740;2023-11-19T13:02:52;19.50;;;9.88;;
64816;SDS011;69411;45.656;11.740;2023-11-19T13:05:27;18.08;;;9.90;;
64816;SDS011;69411;45.656;11.740;2023-11-19T13:08:01;18.05;;;9.45;;
64816;SDS011;69411;45.656;11.740;2023-11-19T13:10:30;18.95;;;9.80;;
64816;SDS011;69411;45.656;11.740;2023-11-19T13:13:05;18.70;;;9.93;;
64816;SDS011;69411;45.656;11.740;2023-11-19T13:15:35;17.88;;;10.15;;
64816;SDS011;69411;45.656;11.740;2023-11-19T13:18:02;19.42;;;10.68;;
64816;SDS011;69411;45.656;11.740;2023-11-19T13:20:28;16.52;;;9.02;;
64816;SDS011;69411;45.656;11.740;2023-11-19T13:23:05;18.08;;;10.07;;
64816;SDS011;69411;45.656;11.740;2023-11-19T13:25:33;16.10;;;10.35;;
64816;SDS011;69411;45.656;11.740;2023-11-19T13:28:00;19.77;;;10.32;;
64816;SDS011;69411;45.656;11.740;2023-11-19T13:30:27;21.73;;;11.20;;
64816;SDS011;69411;45.656;11.740;2023-11-19T13:32:54;17.55;;;9.77;;
64816;SDS011;69411;45.656;11.740;2023-11-19T13:35:21;16.27;;;9.43;;
64816;SDS011;69411;45.656;11.740;2023-11-19T13:37:48;18.55;;;10.18;;
64816;SDS011;69411;45.656;11.740;2023-11-19T13:40:14;17.80;;;10.40;;
64816;SDS011;69411;45.656;11.740;2023-11-19T13:42:41;20.42;;;10.52;;
64816;SDS011;69411;45.656;11.740;2023-11-19T13:45:11;17.02;;;9.40;;
64816;SDS011;69411;45.656;11.740;2023-11-19T13:47:39;18.40;;;9.55;;
64816;SDS011;69411;45.656;11.740;2023-11-19T13:50:11;17.95;;;9.50;;
64816;SDS011;69411;45.656;11.740;2023-11-19T13:52:40;17.73;;;9.82;;
64816;SDS011;69411;45.656;11.740;2023-11-19T13:55:10;22.67;;;12.10;;
64816;SDS011;69411;45.656;11.740;2023-11-19T13:57:37;18.42;;;10.57;;
64816;SDS011;69411;45.656;11.740;2023-11-19T14:00:10;20.83;;;10.40;;
64816;SDS011;69411;45.656;11.740;2023-11-19T14:02:41;19.70;;;10.15;;
64816;SDS011;69411;45.656;11.740;2023-11-19T14:05:08;17.60;;;9.55;;
64816;SDS011;69411;45.656;11.740;2023-11-19T14:07:40;19.10;;;10.23;;
64816;SDS011;69411;45.656;11.740;2023-11-19T14:10:08;18.08;;;9.93;;
64816;SDS011;69411;45.656;11.740;2023-11-19T14:12:36;17.85;;;9.95;;
64816;SDS011;69411;45.656;11.740;2023-11-19T14:15:06;19.90;;;10.75;;
64816;SDS011;69411;45.656;11.740;2023-11-19T14:17:38;21.10;;;11.35;;
64816;SDS011;69411;45.656;11.740;2023-11-19T14:20:05;22.38;;;12.20;;
64816;SDS011;69411;45.656;11.740;2023-11-19T14:22:43;23.42;;;12.35;;
64816;SDS011;69411;45.656;11.740;2023-11-19T14:25:15;21.25;;;11.65;;
64816;SDS011;69411;45.656;11.740;2023-11-19T14:27:42;21.77;;;10.93;;
64816;SDS011;69411;45.656;11.740;2023-11-19T14:30:09;19.90;;;11.50;;
64816;SDS011;69411;45.656;11.740;2023-11-19T14:32:40;19.38;;;10.20;;
64816;SDS011;69411;45.656;11.740;2023-11-19T14:35:17;21.50;;;10.70;;
64816;SDS011;69411;45.656;11.740;2023-11-19T14:37:45;20.85;;;11.52;;
64816;SDS011;69411;45.656;11.740;2023-11-19T14:40:11;22.00;;;11.23;;
64816;SDS011;69411;45.656;11.740;2023-11-19T14:42:38;17.17;;;9.25;;
64816;SDS011;69411;45.656;11.740;2023-11-19T14:45:05;20.10;;;10.27;;
64816;SDS011;69411;45.656;11.740;2023-11-19T14:47:33;18.65;;;10.15;;